»·PEaware :: N7234J KYYN-CYQR

N7234J :: KYYN-CYQR

FLIGHT INFORMATION

Flight Status: Arrived
Operator: Privately registered:
United States
More flights under this callsign
Pilot: Wayne R. (17783)
Aircraft: PIPER PA-28 CHEROKEE ARCHER
(P28A)
More flights by this aircraft type
Origin: KYYN
Destination: CYQR Regina
Canada
More flights between these airports :: More routes between these airports
Route:
File this flight plan on PilotEdge
Remarks:
Altitude:
(Current/Filed)
5,500ft
Speed:
(Current/Filed)
150kts
Departed: 01-Dec-19 07:34 AM
Arrived: 01-Dec-19 08:47 AM
Distance/Time
Traveled:
Not Available
Distance/Time
To Go:
Arrived

Flight Plot

Page will automatically refresh every two minutes.

Flight plan parsing failed; only flown route is shown


Map Options




Map Legend


Flown Route
Filed Route
Departure Airport
Arrival Airport
Navaid (VOR, NDB)
Fix

Horizontal Profiles

Position Reports

Time Latitude Longitude Heading Altitude Ground
Speed
01-Dec-19 07:31 50.296621 -107.695488 135 2650ft 0kts
01-Dec-19 07:32 50.296621 -107.695488 135 2650ft 0kts
01-Dec-19 07:33 50.292957 -107.689261 138 2722ft 80kts
01-Dec-19 07:34 50.293936 -107.652689 57 3548ft 114kts
01-Dec-19 07:35 50.306332 -107.607877 86 4257ft 114kts
01-Dec-19 07:36 50.310528 -107.559252 63 4854ft 118kts
01-Dec-19 07:37 50.319980 -107.510303 88 5270ft 121kts
01-Dec-19 07:38 50.322560 -107.458098 80 5426ft 122kts
01-Dec-19 07:39 50.335339 -107.407437 72 5555ft 123kts
01-Dec-19 07:40 50.340404 -107.353782 88 5599ft 126kts
01-Dec-19 07:41 50.344956 -107.299093 89 5565ft 128kts
01-Dec-19 07:42 50.352703 -107.244098 81 5499ft 129kts
01-Dec-19 07:43 50.360783 -107.190033 81 5494ft 127kts
01-Dec-19 07:44 50.369650 -107.135964 59 5488ft 129kts
01-Dec-19 07:45 50.382562 -107.085262 80 5489ft 127kts
01-Dec-19 07:46 50.390452 -107.031324 81 5489ft 127kts
01-Dec-19 07:47 50.398471 -106.977556 82 5492ft 127kts
01-Dec-19 07:48 50.401324 -106.956151 83 5491ft 127kts
01-Dec-19 07:49 50.401324 -106.956151 83 5491ft 127kts
01-Dec-19 07:50 50.401324 -106.956151 83 5491ft 127kts
01-Dec-19 07:51 50.401324 -106.956151 83 5491ft 127kts
01-Dec-19 07:52 50.401324 -106.956151 83 5491ft 127kts
01-Dec-19 07:53 50.401324 -106.956151 83 5491ft 127kts
01-Dec-19 07:54 50.401324 -106.956151 83 5491ft 127kts
01-Dec-19 07:55 50.404086 -106.934690 83 5493ft 126kts
01-Dec-19 07:56 50.411234 -106.880603 82 5495ft 126kts
01-Dec-19 07:57 50.418464 -106.826107 82 5484ft 126kts
01-Dec-19 07:58 50.425735 -106.772275 81 5487ft 126kts
01-Dec-19 07:59 50.432994 -106.718461 83 5493ft 125kts
01-Dec-19 08:00 50.440529 -106.664582 83 5492ft 126kts
01-Dec-19 08:01 50.448006 -106.610535 81 5493ft 126kts
01-Dec-19 08:02 50.455532 -106.556369 82 5493ft 126kts
01-Dec-19 08:03 50.462937 -106.502313 81 5493ft 125kts
01-Dec-19 08:04 50.470252 -106.448362 83 5495ft 126kts
01-Dec-19 08:05 50.477625 -106.394205 81 5490ft 126kts
01-Dec-19 08:06 50.485118 -106.339814 83 5492ft 125kts
01-Dec-19 08:07 50.492668 -106.285624 83 5506ft 124kts
01-Dec-19 08:08 50.500341 -106.229630 83 5542ft 123kts
01-Dec-19 08:09 50.508060 -106.173172 83 5576ft 122kts
01-Dec-19 08:10 50.515558 -106.117816 83 5610ft 121kts
01-Dec-19 08:11 50.522832 -106.063329 82 5637ft 120kts
01-Dec-19 08:12 50.529908 -106.007632 82 5637ft 125kts
01-Dec-19 08:13 50.537130 -105.951282 82 5628ft 125kts
01-Dec-19 08:14 50.544284 -105.894442 82 5628ft 125kts
01-Dec-19 08:15 50.551489 -105.837186 82 5628ft 125kts
01-Dec-19 08:16 50.558732 -105.779589 82 5628ft 125kts
01-Dec-19 08:17 50.565951 -105.722216 82 5628ft 125kts
01-Dec-19 08:18 50.573122 -105.665190 82 5628ft 125kts
01-Dec-19 08:19 50.580401 -105.607318 82 5628ft 125kts
01-Dec-19 08:20 50.587604 -105.550056 82 5628ft 125kts
01-Dec-19 08:21 50.594718 -105.493493 82 5628ft 125kts
01-Dec-19 08:22 50.601881 -105.436570 82 5628ft 125kts
01-Dec-19 08:23 50.609106 -105.379277 82 5629ft 125kts
01-Dec-19 08:24 50.616306 -105.322234 83 5628ft 125kts
01-Dec-19 08:26 50.623428 -105.265894 83 5628ft 125kts
01-Dec-19 08:27 50.630528 -105.209718 83 5628ft 125kts
01-Dec-19 08:28 50.637540 -105.154244 82 5628ft 125kts
01-Dec-19 08:29 50.644593 -105.098473 82 5628ft 125kts
01-Dec-19 08:30 50.651739 -105.042583 82 5628ft 124kts
01-Dec-19 08:31 50.659009 -104.986729 82 5628ft 124kts
01-Dec-19 08:32 50.666304 -104.931451 82 5628ft 124kts
01-Dec-19 08:33 50.673748 -104.875683 83 5628ft 123kts
01-Dec-19 08:34 50.663335 -104.829651 141 5620ft 112kts
01-Dec-19 08:35 50.638981 -104.798001 144 5200ft 103kts
01-Dec-19 08:36 50.622311 -104.815988 261 4738ft 112kts
01-Dec-19 08:37 50.603571 -104.844965 193 4529ft 98kts
01-Dec-19 08:38 50.575195 -104.858353 193 4316ft 98kts
01-Dec-19 08:39 50.554332 -104.855289 117 4148ft 104kts
01-Dec-19 08:40 50.541964 -104.814971 131 3706ft 96kts
01-Dec-19 08:41 50.522783 -104.783068 140 3185ft 95kts
01-Dec-19 08:42 50.502972 -104.755757 139 2892ft 85kts
01-Dec-19 08:42 50.488493 -104.735236 140 2829ft 82kts
01-Dec-19 08:44 50.466493 -104.710906 146 2687ft 87kts
01-Dec-19 08:45 50.449520 -104.686626 137 2183ft 83kts
01-Dec-19 08:45 50.437227 -104.667996 135 1885ft 51kts
01-Dec-19 08:47 50.434681 -104.662263 54 1885ft 0kts

Navigation Log

Ident Type
Flight plan parsing failed, navigation log unavailable